createdAt,value
2022-08-23T00:00:51.834Z,22.00
2022-08-23T00:02:01.632Z,22.00
2022-08-23T00:03:04.714Z,22.00
2022-08-23T00:04:15.608Z,22.00
2022-08-23T00:05:23.539Z,22.00
2022-08-23T00:06:26.324Z,22.00
2022-08-23T00:07:29.895Z,21.90
2022-08-23T00:08:32.690Z,21.90
2022-08-23T00:09:36.454Z,21.90
2022-08-23T00:10:39.286Z,21.90
2022-08-23T00:11:47.924Z,21.90
2022-08-23T00:12:50.534Z,21.90
2022-08-23T00:13:54.340Z,21.90
2022-08-23T00:14:58.425Z,21.90
2022-08-23T00:16:02.837Z,21.90
2022-08-23T00:17:09.211Z,21.80
2022-08-23T00:18:14.432Z,21.80
2022-08-23T00:19:18.997Z,21.80
2022-08-23T00:20:22.867Z,21.80
2022-08-23T00:21:25.616Z,21.80
2022-08-23T00:22:29.171Z,21.80
2022-08-23T00:23:32.385Z,21.80
2022-08-23T00:24:40.850Z,21.70
2022-08-23T00:25:43.628Z,21.70
2022-08-23T00:26:54.113Z,21.70
2022-08-23T00:27:57.996Z,21.70
2022-08-23T00:29:00.762Z,21.70
2022-08-23T00:30:08.119Z,21.70
2022-08-23T00:31:12.242Z,21.70
2022-08-23T00:32:18.884Z,21.70
2022-08-23T00:33:21.889Z,21.70
2022-08-23T00:34:25.507Z,21.60
2022-08-23T00:35:32.132Z,21.60
2022-08-23T00:36:34.810Z,21.60
2022-08-23T00:37:39.428Z,21.60
2022-08-23T00:38:42.267Z,21.60
2022-08-23T00:39:47.093Z,21.60
2022-08-23T00:40:53.073Z,21.60
2022-08-23T00:42:01.109Z,21.60
2022-08-23T00:43:32.429Z,21.60
2022-08-23T00:44:53.878Z,21.50
2022-08-23T00:46:28.511Z,21.50
2022-08-23T00:47:44.855Z,21.50
2022-08-23T00:48:48.309Z,21.50
2022-08-23T00:49:59.996Z,21.50
2022-08-23T00:51:11.108Z,21.50
2022-08-23T00:52:21.002Z,21.50
2022-08-23T00:53:27.545Z,21.50
2022-08-23T00:54:33.283Z,21.40
2022-08-23T00:55:37.005Z,21.40
2022-08-23T00:56:41.168Z,21.40
2022-08-23T00:57:44.389Z,21.40
2022-08-23T00:58:51.030Z,21.40
2022-08-23T00:59:54.104Z,21.40
2022-08-23T01:01:00.654Z,21.40
2022-08-23T01:02:07.948Z,21.40
2022-08-23T01:03:15.709Z,21.40
2022-08-23T01:04:19.003Z,21.40
2022-08-23T01:05:32.139Z,21.40
2022-08-23T01:06:40.355Z,21.40
2022-08-23T01:07:50.492Z,21.40
2022-08-23T01:09:02.131Z,21.40
2022-08-23T01:10:10.178Z,21.40
2022-08-23T01:11:25.857Z,21.40
2022-08-23T01:12:36.106Z,21.40
2022-08-23T01:13:44.094Z,21.40
2022-08-23T01:14:55.655Z,21.40
2022-08-23T01:16:06.121Z,21.40
2022-08-23T01:17:17.592Z,21.50
2022-08-23T01:18:26.765Z,21.50
2022-08-23T01:19:36.607Z,21.40
2022-08-23T01:20:47.403Z,21.50
2022-08-23T01:21:57.969Z,21.40
2022-08-23T01:23:09.020Z,21.50
2022-08-23T01:24:18.027Z,21.50
2022-08-23T01:25:39.685Z,21.40
2022-08-23T01:26:42.632Z,21.40
2022-08-23T01:27:47.498Z,21.40
2022-08-23T01:28:52.778Z,21.40
2022-08-23T01:29:59.322Z,21.40
2022-08-23T01:31:02.703Z,21.40
2022-08-23T01:32:11.345Z,21.40
2022-08-23T01:33:14.905Z,21.40
2022-08-23T01:34:18.789Z,21.30
2022-08-23T01:35:30.248Z,21.30
2022-08-23T01:36:35.877Z,21.30
2022-08-23T01:37:38.762Z,21.30
2022-08-23T01:38:42.388Z,21.30
2022-08-23T01:39:46.622Z,21.30
2022-08-23T01:40:51.614Z,21.30
2022-08-23T01:41:54.209Z,21.20
2022-08-23T01:42:57.867Z,21.20
2022-08-23T01:44:00.851Z,21.20
2022-08-23T01:45:07.270Z,21.20
2022-08-23T01:46:12.878Z,21.10
2022-08-23T01:47:16.584Z,21.10
2022-08-23T01:48:20.875Z,21.10
2022-08-23T01:49:24.383Z,21.00
2022-08-23T01:50:28.717Z,21.00
2022-08-23T01:51:33.504Z,20.90
2022-08-23T01:52:37.778Z,20.90
2022-08-23T01:53:50.835Z,20.90
2022-08-23T01:54:55.898Z,20.80
2022-08-23T01:56:03.187Z,20.80
2022-08-23T01:57:11.037Z,20.80
2022-08-23T02:00:32.497Z,20.70
2022-08-23T02:01:35.186Z,20.60
2022-08-23T02:02:39.298Z,20.60
2022-08-23T02:03:45.973Z,20.60
2022-08-23T02:04:53.033Z,20.50
2022-08-23T02:05:56.850Z,20.50
2022-08-23T02:06:59.618Z,20.50
2022-08-23T02:08:23.369Z,20.50
2022-08-23T02:09:29.282Z,20.40
2022-08-23T02:10:37.488Z,20.40
2022-08-23T02:11:42.635Z,20.40
2022-08-23T02:12:47.862Z,20.30
2022-08-23T02:13:55.017Z,20.30
2022-08-23T02:15:02.631Z,20.30
2022-08-23T02:16:06.005Z,20.30
2022-08-23T02:17:10.394Z,20.20
2022-08-23T02:18:14.010Z,20.20
2022-08-23T02:19:21.167Z,20.20
2022-08-23T02:20:23.764Z,20.20
2022-08-23T02:21:27.691Z,20.20
2022-08-23T02:22:30.334Z,20.20
2022-08-23T02:23:34.006Z,20.20
2022-08-23T02:24:42.776Z,20.20
2022-08-23T02:25:47.914Z,20.20
2022-08-23T02:26:56.835Z,20.10
2022-08-23T02:28:04.478Z,20.10
2022-08-23T02:29:08.795Z,20.10
2022-08-23T02:30:14.058Z,20.10
2022-08-23T02:31:18.891Z,20.10
2022-08-23T02:32:26.024Z,20.10
2022-08-23T02:33:30.090Z,20.10
2022-08-23T02:34:34.118Z,20.10
2022-08-23T02:35:37.241Z,20.00
2022-08-23T02:36:41.397Z,20.00
2022-08-23T02:37:45.062Z,20.00
2022-08-23T02:38:49.890Z,20.00
2022-08-23T02:39:52.802Z,20.00
2022-08-23T02:41:00.781Z,20.00
2022-08-23T02:42:04.676Z,19.90
2022-08-23T02:43:13.149Z,19.90
2022-08-23T02:44:15.766Z,19.90
2022-08-23T02:45:19.761Z,19.90
2022-08-23T02:46:26.253Z,19.90
2022-08-23T02:47:29.962Z,19.90
2022-08-23T02:48:45.045Z,19.90
2022-08-23T02:49:49.840Z,19.90
2022-08-23T02:50:53.437Z,19.80
2022-08-23T02:51:56.623Z,19.90
2022-08-23T02:53:00.802Z,19.80
2022-08-23T02:54:04.543Z,19.80
2022-08-23T02:55:10.249Z,19.80
2022-08-23T02:56:21.638Z,19.80
2022-08-23T02:57:26.172Z,19.80
2022-08-23T02:58:30.759Z,19.80
2022-08-23T02:59:35.489Z,19.80
2022-08-23T03:00:38.975Z,19.80
2022-08-23T03:01:42.924Z,19.80
2022-08-23T03:02:57.402Z,19.80
2022-08-23T03:04:03.704Z,19.80
2022-08-23T03:05:08.304Z,19.80
2022-08-23T03:06:25.644Z,19.80
2022-08-23T03:07:28.804Z,19.80
2022-08-23T03:08:32.464Z,19.80
2022-08-23T03:09:34.983Z,19.80
2022-08-23T03:10:40.930Z,19.80
2022-08-23T03:11:47.837Z,19.80
2022-08-23T03:12:51.563Z,19.80
2022-08-23T03:13:56.439Z,19.80
2022-08-23T03:15:00.030Z,19.80
2022-08-23T03:16:02.947Z,19.80
2022-08-23T03:17:08.254Z,19.80
2022-08-23T03:18:13.030Z,19.90
2022-08-23T03:19:16.979Z,19.80
2022-08-23T03:20:20.996Z,19.90
2022-08-23T03:21:28.006Z,19.90
2022-08-23T03:22:31.528Z,19.90
2022-08-23T03:23:36.699Z,19.90
2022-08-23T03:24:39.333Z,19.90
2022-08-23T03:25:43.360Z,19.90
2022-08-23T03:27:03.076Z,19.90
2022-08-23T03:28:08.379Z,19.90
2022-08-23T03:29:15.300Z,19.90
2022-08-23T03:30:36.577Z,19.90
2022-08-23T03:32:08.844Z,19.90
2022-08-23T03:33:14.365Z,19.90
2022-08-23T03:34:18.839Z,19.90
2022-08-23T03:35:21.392Z,19.90
2022-08-23T03:36:28.118Z,19.90
2022-08-23T03:37:33.676Z,19.90
2022-08-23T03:38:39.506Z,19.90
2022-08-23T03:39:43.801Z,19.90
2022-08-23T03:40:47.566Z,20.00
2022-08-23T03:41:53.879Z,19.90
2022-08-23T03:42:58.153Z,20.00
2022-08-23T03:44:03.475Z,20.00
2022-08-23T03:45:10.263Z,20.00
2022-08-23T03:46:22.974Z,20.00
2022-08-23T03:47:29.056Z,20.00
2022-08-23T03:48:32.775Z,20.00
2022-08-23T03:49:38.806Z,20.00
2022-08-23T03:50:41.470Z,20.00
2022-08-23T03:51:45.376Z,20.00
2022-08-23T03:52:48.390Z,20.00
2022-08-23T03:53:52.386Z,20.00
2022-08-23T03:54:55.117Z,20.00
2022-08-23T03:55:58.729Z,20.00
2022-08-23T03:57:04.002Z,20.00
2022-08-23T03:58:12.735Z,20.00
2022-08-23T03:59:15.319Z,20.00
2022-08-23T04:00:20.236Z,20.00
2022-08-23T04:01:28.714Z,20.00
2022-08-23T04:02:33.887Z,20.00
2022-08-23T04:03:37.059Z,20.00
2022-08-23T04:04:42.342Z,20.10
2022-08-23T04:05:57.157Z,20.00
2022-08-23T04:07:01.262Z,20.00
2022-08-23T04:08:09.765Z,20.00
2022-08-23T04:09:16.623Z,20.00
2022-08-23T04:10:21.340Z,20.00
2022-08-23T04:11:27.799Z,20.00
2022-08-23T04:12:39.916Z,20.00
2022-08-23T04:13:49.976Z,20.00
2022-08-23T04:14:56.287Z,20.00
2022-08-23T04:15:59.377Z,20.00
2022-08-23T04:17:03.051Z,20.00
2022-08-23T04:18:09.279Z,20.00
2022-08-23T04:19:14.824Z,20.00
2022-08-23T04:20:33.290Z,20.00
2022-08-23T04:21:39.846Z,20.00
2022-08-23T04:22:46.521Z,20.00
2022-08-23T04:23:52.796Z,20.00
2022-08-23T04:24:57.157Z,20.00
2022-08-23T04:26:00.180Z,20.00
2022-08-23T04:27:07.884Z,20.00
2022-08-23T04:28:10.681Z,20.00
2022-08-23T04:29:23.053Z,20.00
2022-08-23T04:30:37.739Z,20.00
2022-08-23T04:31:41.535Z,20.00
2022-08-23T04:32:44.782Z,20.10
2022-08-23T04:33:52.338Z,20.00
2022-08-23T04:34:55.888Z,20.10
2022-08-23T04:35:59.823Z,20.00
2022-08-23T04:37:03.498Z,20.00
2022-08-23T04:38:24.483Z,20.10
2022-08-23T04:39:29.963Z,20.10
2022-08-23T04:40:52.120Z,20.00
2022-08-23T04:42:14.971Z,20.00
2022-08-23T04:43:19.525Z,20.10
2022-08-23T04:44:23.608Z,20.10
2022-08-23T04:45:32.602Z,20.10
2022-08-23T04:46:36.320Z,20.10
2022-08-23T04:47:41.554Z,20.10
2022-08-23T04:48:47.341Z,20.10
2022-08-23T04:49:51.203Z,20.10
2022-08-23T04:50:53.909Z,20.10
2022-08-23T04:52:00.545Z,20.10
2022-08-23T04:53:04.009Z,20.10
2022-08-23T04:54:12.852Z,20.10
2022-08-23T04:55:42.670Z,20.10
2022-08-23T04:56:46.456Z,20.10
2022-08-23T04:57:55.488Z,20.10
2022-08-23T04:59:03.181Z,20.10
2022-08-23T05:00:11.895Z,20.20
2022-08-23T05:01:19.922Z,20.20
2022-08-23T05:02:23.434Z,20.20
2022-08-23T05:03:29.754Z,20.20
2022-08-23T05:04:33.898Z,20.20
2022-08-23T05:05:38.488Z,20.20
2022-08-23T05:06:45.779Z,20.20
2022-08-23T05:07:49.597Z,20.20
2022-08-23T05:08:53.062Z,20.20
2022-08-23T05:10:00.092Z,20.20
2022-08-23T05:11:04.977Z,20.20
2022-08-23T05:12:09.769Z,20.20
2022-08-23T05:13:12.816Z,20.20
2022-08-23T05:14:16.558Z,20.20
2022-08-23T05:15:20.949Z,20.20
2022-08-23T05:16:30.604Z,20.20
2022-08-23T05:17:39.701Z,20.20
2022-08-23T05:18:43.787Z,20.30
2022-08-23T05:19:47.147Z,20.30
2022-08-23T05:20:54.211Z,20.30
2022-08-23T05:21:57.979Z,20.30
2022-08-23T05:23:15.637Z,20.30
2022-08-23T05:24:26.048Z,20.30
2022-08-23T05:25:44.567Z,20.30
2022-08-23T05:26:48.481Z,20.40
2022-08-23T05:27:51.686Z,20.40
2022-08-23T05:28:55.566Z,20.40
2022-08-23T05:30:05.385Z,20.40
2022-08-23T05:31:14.253Z,20.40
2022-08-23T05:32:24.586Z,20.40
2022-08-23T05:33:29.197Z,20.50
2022-08-23T05:34:32.885Z,20.50
2022-08-23T05:35:40.407Z,20.50
2022-08-23T05:36:47.385Z,20.50
2022-08-23T05:38:00.664Z,20.50
2022-08-23T05:39:06.017Z,20.50
2022-08-23T05:40:12.084Z,20.60
2022-08-23T05:41:37.722Z,20.60
2022-08-23T05:42:43.588Z,20.60
2022-08-23T05:43:48.228Z,20.60
2022-08-23T05:44:52.313Z,20.60
2022-08-23T05:46:04.498Z,20.60
2022-08-23T05:47:16.373Z,20.70
2022-08-23T05:48:42.864Z,20.70
2022-08-23T05:49:46.642Z,20.70
2022-08-23T05:50:52.188Z,20.80
2022-08-23T05:51:58.381Z,20.80
2022-08-23T05:53:05.503Z,20.80
2022-08-23T05:54:10.818Z,20.80
2022-08-23T05:55:13.613Z,20.90
2022-08-23T05:56:20.118Z,20.90
2022-08-23T05:57:22.904Z,20.90
2022-08-23T05:58:28.996Z,21.00
2022-08-23T05:59:31.769Z,21.00
2022-08-23T06:00:37.362Z,21.10
2022-08-23T06:01:47.232Z,21.10
2022-08-23T06:02:56.153Z,21.20
2022-08-23T06:04:01.253Z,21.20
2022-08-23T06:05:05.542Z,21.20
2022-08-23T06:06:10.612Z,21.30
2022-08-23T06:07:13.270Z,21.40
2022-08-23T06:08:17.038Z,21.40
2022-08-23T06:09:19.977Z,21.50
2022-08-23T06:10:24.536Z,21.60
2022-08-23T06:11:38.442Z,21.60
2022-08-23T06:12:42.457Z,21.70
2022-08-23T06:13:48.729Z,21.80
2022-08-23T06:14:51.584Z,21.90
2022-08-23T06:15:57.532Z,22.00
2022-08-23T06:17:01.866Z,22.10
2022-08-23T06:18:05.869Z,22.20
2022-08-23T06:19:15.182Z,22.30
2022-08-23T06:20:39.687Z,22.40
2022-08-23T06:21:44.595Z,22.60
2022-08-23T06:22:48.388Z,22.70
2022-08-23T06:23:52.077Z,23.00
2022-08-23T06:24:55.781Z,23.30
2022-08-23T06:26:21.399Z,23.60
2022-08-23T06:27:24.634Z,24.00
2022-08-23T06:28:29.735Z,24.20
2022-08-23T06:29:34.712Z,24.40
2022-08-23T06:30:58.013Z,24.60
2022-08-23T06:32:11.140Z,24.80
2022-08-23T06:33:23.006Z,25.00
2022-08-23T06:35:36.113Z,25.20
2022-08-23T06:36:32.741Z,25.60
2022-08-23T06:37:50.294Z,25.90
2022-08-23T06:39:26.008Z,26.20
2022-08-23T06:40:35.478Z,26.60
2022-08-23T06:42:28.019Z,27.10
2022-08-23T06:43:40.402Z,27.60
2022-08-23T06:44:54.662Z,28.30
2022-08-23T06:46:15.425Z,28.80
2022-08-23T06:47:22.984Z,29.30
2022-08-23T06:48:28.022Z,29.70
2022-08-23T06:49:31.881Z,30.00
2022-08-23T06:50:35.844Z,30.20
2022-08-23T06:52:01.519Z,30.30
2022-08-23T06:53:23.065Z,30.30
2022-08-23T06:54:37.846Z,30.30
2022-08-23T06:56:19.963Z,30.20
2022-08-23T06:57:39.468Z,30.00
2022-08-23T06:59:03.592Z,29.80
2022-08-23T07:00:37.660Z,29.70
2022-08-23T07:01:57.902Z,29.50
2022-08-23T07:03:28.462Z,29.30
2022-08-23T07:05:04.605Z,29.20
2022-08-23T07:06:35.553Z,29.10
2022-08-23T07:07:41.468Z,29.00
2022-08-23T07:08:48.513Z,29.00
2022-08-23T07:09:53.019Z,28.90
2022-08-23T07:10:56.806Z,28.80
2022-08-23T07:12:01.697Z,28.90
2022-08-23T07:13:05.705Z,29.00
2022-08-23T07:14:13.025Z,29.10
2022-08-23T07:15:16.836Z,29.30
2022-08-23T07:16:21.654Z,29.70
2022-08-23T07:17:25.357Z,30.00
2022-08-23T07:18:29.500Z,30.40
2022-08-23T07:19:35.535Z,30.80
2022-08-23T07:20:40.290Z,31.20
2022-08-23T07:21:47.628Z,31.60
2022-08-23T07:22:52.307Z,32.00
2022-08-23T07:23:56.803Z,32.30
2022-08-23T07:25:00.611Z,32.60
2022-08-23T07:26:12.500Z,32.90
2022-08-23T07:27:16.747Z,33.10
2022-08-23T07:28:42.218Z,33.40
2022-08-23T07:29:46.168Z,33.50
2022-08-23T07:30:48.980Z,33.70
2022-08-23T07:31:57.122Z,33.70
2022-08-23T07:33:01.679Z,33.60
2022-08-23T07:34:11.416Z,33.50
2022-08-23T07:35:16.996Z,33.40
2022-08-23T07:36:44.594Z,33.30
2022-08-23T07:37:49.125Z,33.20
2022-08-23T07:38:53.259Z,33.00
2022-08-23T07:39:58.591Z,32.90
2022-08-23T07:41:03.633Z,32.90
2022-08-23T07:42:22.753Z,33.00
2022-08-23T07:43:34.211Z,33.30
2022-08-23T07:44:38.960Z,33.70
2022-08-23T07:45:43.482Z,33.90
2022-08-23T07:46:50.623Z,34.10
2022-08-23T07:47:57.565Z,34.20
2022-08-23T07:49:03.725Z,34.30
2022-08-23T07:50:13.772Z,34.40
2022-08-23T07:51:16.840Z,34.40
2022-08-23T07:52:20.978Z,34.40
2022-08-23T07:53:37.735Z,34.40
2022-08-23T07:54:48.402Z,34.30
2022-08-23T07:56:22.518Z,34.20
2022-08-23T07:57:52.440Z,34.20
2022-08-23T07:59:15.866Z,34.30
2022-08-23T08:00:48.954Z,34.40
2022-08-23T08:02:15.864Z,34.80
2022-08-23T08:03:20.669Z,35.30
2022-08-23T08:04:41.036Z,35.70
2022-08-23T08:05:46.910Z,36.20
2022-08-23T08:07:16.948Z,36.60
2022-08-23T08:08:20.006Z,36.80
2022-08-23T08:09:24.943Z,36.90
2022-08-23T08:10:28.540Z,36.90
2022-08-23T08:11:35.895Z,36.90
2022-08-23T08:12:39.820Z,36.80
2022-08-23T08:13:53.618Z,36.60
2022-08-23T08:14:57.527Z,36.50
2022-08-23T08:16:08.738Z,36.40
2022-08-23T08:17:18.152Z,36.20
2022-08-23T08:18:40.505Z,36.10
2022-08-23T08:20:03.304Z,35.80
2022-08-23T08:21:30.878Z,35.60
2022-08-23T08:22:45.411Z,35.30
2022-08-23T08:23:57.543Z,35.00
2022-08-23T08:25:34.252Z,34.80
2022-08-23T08:26:41.059Z,34.60
2022-08-23T08:27:45.640Z,34.40
2022-08-23T08:28:48.725Z,34.20
2022-08-23T08:29:52.929Z,34.20
2022-08-23T08:30:55.868Z,34.20
2022-08-23T08:31:59.785Z,34.30
2022-08-23T08:33:02.653Z,34.60
2022-08-23T08:34:08.917Z,35.00
2022-08-23T08:35:11.711Z,35.50
2022-08-23T08:36:35.322Z,36.00
2022-08-23T08:37:42.756Z,36.60
2022-08-23T08:38:50.297Z,37.20
2022-08-23T08:39:57.180Z,37.70
2022-08-23T08:41:14.713Z,38.30
2022-08-23T08:42:47.010Z,38.90
2022-08-23T08:44:04.685Z,39.50
2022-08-23T08:45:15.230Z,40.30
2022-08-23T08:46:26.015Z,40.90
2022-08-23T08:47:42.250Z,41.40
2022-08-23T08:48:52.336Z,42.00
2022-08-23T08:50:03.822Z,42.60
2022-08-23T08:51:30.043Z,43.10
2022-08-23T08:52:44.006Z,43.70
2022-08-23T08:53:56.968Z,44.30
2022-08-23T08:55:20.430Z,44.80
2022-08-23T08:56:32.723Z,45.30
2022-08-23T08:59:25.461Z,46.30
2022-08-23T09:00:33.615Z,46.50
2022-08-23T09:01:38.886Z,46.60
2022-08-23T09:02:45.180Z,46.60
2022-08-23T09:03:48.737Z,46.60
2022-08-23T09:04:55.475Z,46.60
2022-08-23T09:06:11.247Z,46.60
2022-08-23T09:07:31.265Z,46.60
2022-08-23T09:08:58.833Z,46.50
2022-08-23T09:10:42.825Z,46.50
2022-08-23T09:12:02.617Z,46.20
2022-08-23T09:13:57.577Z,45.90
2022-08-23T09:15:20.893Z,45.70
2022-08-23T09:16:51.010Z,45.20
2022-08-23T09:17:57.665Z,44.90
2022-08-23T09:19:03.978Z,44.50
2022-08-23T09:20:09.897Z,44.20
2022-08-23T09:21:14.906Z,43.90
2022-08-23T09:22:30.264Z,43.60
2022-08-23T09:23:42.446Z,43.40
2022-08-23T09:25:03.608Z,43.10
2022-08-23T09:26:24.265Z,43.00
2022-08-23T09:27:28.240Z,43.10
2022-08-23T09:28:38.980Z,43.20
2022-08-23T09:29:55.087Z,43.40
2022-08-23T09:31:01.068Z,43.60
2022-08-23T09:32:25.497Z,43.90
2022-08-23T09:33:40.608Z,44.30
2022-08-23T09:34:47.860Z,44.90
2022-08-23T09:36:16.125Z,45.40
2022-08-23T09:37:54.509Z,45.90
2022-08-23T09:39:02.529Z,46.50
2022-08-23T09:40:19.613Z,47.20
2022-08-23T09:42:39.553Z,48.20
2022-08-23T09:43:48.816Z,48.70
2022-08-23T09:44:56.442Z,49.10
2022-08-23T09:46:04.550Z,49.30
2022-08-23T09:47:15.227Z,49.60
2022-08-23T09:48:39.016Z,49.90
2022-08-23T09:49:48.406Z,50.30
2022-08-23T09:50:55.379Z,50.60
2022-08-23T09:52:10.199Z,50.70
2022-08-23T09:53:16.943Z,50.80
2022-08-23T09:55:35.816Z,51.10
2022-08-23T09:56:41.901Z,51.10
2022-08-23T09:57:49.692Z,51.30
2022-08-23T09:58:54.861Z,51.40
2022-08-23T10:00:24.767Z,51.50
2022-08-23T10:01:38.320Z,51.50
2022-08-23T10:02:47.417Z,51.30
2022-08-23T10:04:19.360Z,51.00
2022-08-23T10:05:37.196Z,50.60
2022-08-23T10:06:46.451Z,50.20
2022-08-23T10:08:00.014Z,49.70
2022-08-23T10:09:07.583Z,49.30
2022-08-23T10:10:29.812Z,48.90
2022-08-23T10:11:45.007Z,48.40
2022-08-23T10:12:48.385Z,48.10
2022-08-23T10:13:53.777Z,48.00
2022-08-23T10:14:56.327Z,47.90
2022-08-23T10:16:13.696Z,48.00
2022-08-23T10:17:38.110Z,48.10
2022-08-23T10:18:57.782Z,48.20
2022-08-23T10:20:18.213Z,48.30
2022-08-23T10:21:31.982Z,48.50
2022-08-23T10:22:44.704Z,48.70
2022-08-23T10:24:23.308Z,48.90
2022-08-23T10:25:36.759Z,49.20
2022-08-23T10:27:43.977Z,49.50
2022-08-23T10:29:17.099Z,49.80
2022-08-23T10:30:24.851Z,50.10
2022-08-23T10:31:39.041Z,50.40
2022-08-23T10:32:58.632Z,50.70
2022-08-23T10:34:29.934Z,50.80
2022-08-23T10:35:44.509Z,51.00
2022-08-23T10:37:02.219Z,51.20
2022-08-23T10:38:22.974Z,51.40
2022-08-23T10:39:31.968Z,51.50
2022-08-23T10:40:48.897Z,51.60
2022-08-23T10:42:02.136Z,51.70
2022-08-23T10:43:20.761Z,51.70
2022-08-23T10:44:30.520Z,51.60
2022-08-23T10:45:37.890Z,51.50
2022-08-23T10:47:13.961Z,51.50
2022-08-23T10:48:28.755Z,51.40
2022-08-23T10:49:36.598Z,51.10
2022-08-23T10:50:55.553Z,50.80
2022-08-23T10:52:04.951Z,50.40
2022-08-23T10:53:17.120Z,49.90
2022-08-23T10:54:35.381Z,49.60
2022-08-23T10:56:05.065Z,49.20
2022-08-23T10:57:21.875Z,48.80
2022-08-23T10:58:29.308Z,48.40
2022-08-23T10:59:38.859Z,48.20
2022-08-23T11:00:43.268Z,47.90
2022-08-23T11:02:02.261Z,47.70
2022-08-23T11:03:25.524Z,47.50
2022-08-23T11:04:45.573Z,47.20
2022-08-23T11:06:48.340Z,46.90
2022-08-23T11:08:01.438Z,46.50
2022-08-23T11:09:10.097Z,46.20
2022-08-23T11:10:26.271Z,46.00
2022-08-23T11:11:48.958Z,45.80
2022-08-23T11:12:58.091Z,45.60
2022-08-23T11:14:04.211Z,45.50
2022-08-23T11:15:19.675Z,45.40
2022-08-23T11:16:32.288Z,45.20
2022-08-23T11:17:55.281Z,45.20
2022-08-23T11:18:58.718Z,45.10
2022-08-23T11:20:15.447Z,45.00
2022-08-23T11:21:49.288Z,44.90
2022-08-23T11:23:15.949Z,44.80
2022-08-23T11:24:59.161Z,44.60
2022-08-23T11:26:07.209Z,44.50
2022-08-23T11:27:30.193Z,44.40
2022-08-23T11:28:47.445Z,44.30
2022-08-23T11:29:52.027Z,44.30
2022-08-23T11:31:25.119Z,44.30
2022-08-23T11:32:45.452Z,44.30
2022-08-23T11:34:02.512Z,44.30
2022-08-23T11:35:27.395Z,44.30
2022-08-23T11:36:36.291Z,44.30
2022-08-23T11:37:57.673Z,44.40
2022-08-23T11:39:19.555Z,44.40
2022-08-23T11:40:59.281Z,44.40
2022-08-23T11:42:09.145Z,44.50
2022-08-23T11:43:23.997Z,44.60
2022-08-23T11:44:36.693Z,44.70
2022-08-23T11:45:46.492Z,44.80
2022-08-23T11:47:05.045Z,44.90
2022-08-23T11:48:43.447Z,45.00
2022-08-23T11:50:19.555Z,45.20
2022-08-23T11:51:33.522Z,45.40
2022-08-23T11:53:15.293Z,45.50
2022-08-23T11:54:52.696Z,45.70
2022-08-23T11:56:31.476Z,45.90
2022-08-23T11:58:00.588Z,46.10
2022-08-23T11:59:41.585Z,46.20
2022-08-23T12:01:07.700Z,46.10
2022-08-23T12:03:02.049Z,46.10
2022-08-23T12:04:11.817Z,46.00
2022-08-23T12:05:32.910Z,45.80
2022-08-23T12:06:51.186Z,45.70
2022-08-23T12:08:33.792Z,45.70
2022-08-23T12:09:58.057Z,45.50
2022-08-23T12:11:07.828Z,45.40
2022-08-23T12:12:26.618Z,45.30
2022-08-23T12:14:01.194Z,45.20
2022-08-23T12:15:11.978Z,45.20
2022-08-23T12:16:49.654Z,45.20
2022-08-23T12:18:20.532Z,45.20
2022-08-23T12:19:39.920Z,45.20
2022-08-23T12:20:48.345Z,45.30
2022-08-23T12:21:55.344Z,45.30
2022-08-23T12:23:17.400Z,45.30
2022-08-23T12:24:29.908Z,45.40
2022-08-23T12:25:34.582Z,45.40
2022-08-23T12:26:50.779Z,45.50
2022-08-23T12:28:04.110Z,45.50
2022-08-23T12:29:19.279Z,45.40
2022-08-23T12:30:30.011Z,45.40
2022-08-23T12:31:41.311Z,45.30
2022-08-23T12:32:54.837Z,45.30
2022-08-23T12:34:26.246Z,45.20
2022-08-23T12:35:40.816Z,45.10
2022-08-23T12:36:55.751Z,45.10
2022-08-23T12:38:09.841Z,45.10
2022-08-23T12:39:25.625Z,45.20
2022-08-23T12:40:35.203Z,45.10
2022-08-23T12:41:56.617Z,45.00
2022-08-23T12:43:07.092Z,44.90
2022-08-23T12:44:11.868Z,44.80
2022-08-23T12:45:23.982Z,44.70
2022-08-23T12:46:37.981Z,44.60
2022-08-23T12:47:43.367Z,44.50
2022-08-23T12:48:47.265Z,44.40
2022-08-23T12:50:01.819Z,44.40
2022-08-23T12:51:14.372Z,44.20
2022-08-23T12:52:17.093Z,44.10
2022-08-23T12:53:32.035Z,43.90
2022-08-23T12:54:39.766Z,43.60
2022-08-23T12:55:48.970Z,43.30
2022-08-23T12:56:54.699Z,43.00
2022-08-23T12:57:59.524Z,42.80
2022-08-23T12:59:07.736Z,42.70
2022-08-23T13:00:23.012Z,42.60
2022-08-23T13:01:30.872Z,42.60
2022-08-23T13:02:37.281Z,42.60
2022-08-23T13:03:44.549Z,42.50
2022-08-23T13:04:48.495Z,42.40
2022-08-23T13:05:57.559Z,42.40
2022-08-23T13:07:10.949Z,42.40
2022-08-23T13:08:27.322Z,42.40
2022-08-23T13:09:42.104Z,42.30
2022-08-23T13:10:48.317Z,42.10
2022-08-23T13:11:52.447Z,42.00
2022-08-23T13:12:56.517Z,41.80
2022-08-23T13:14:01.422Z,41.60
2022-08-23T13:15:08.396Z,41.50
2022-08-23T13:16:33.331Z,41.30
2022-08-23T13:17:39.846Z,41.10
2022-08-23T13:18:45.910Z,40.90
2022-08-23T13:19:50.809Z,40.70
2022-08-23T13:21:28.262Z,40.60
2022-08-23T13:22:33.467Z,40.50
2022-08-23T13:23:36.061Z,40.40
2022-08-23T13:24:44.051Z,40.40
2022-08-23T13:25:47.847Z,40.30
2022-08-23T13:26:50.564Z,40.20
2022-08-23T13:27:58.639Z,40.20
2022-08-23T13:29:20.879Z,40.10
2022-08-23T13:30:27.884Z,40.20
2022-08-23T13:31:52.028Z,40.20
2022-08-23T13:33:21.684Z,40.30
2022-08-23T13:34:48.647Z,40.40
2022-08-23T13:36:13.046Z,40.40
2022-08-23T13:37:24.297Z,40.40
2022-08-23T13:38:33.723Z,40.40
2022-08-23T13:39:37.399Z,40.40
2022-08-23T13:40:48.679Z,40.40
2022-08-23T13:41:51.434Z,40.40
2022-08-23T13:43:01.966Z,40.50
2022-08-23T13:44:08.047Z,40.60
2022-08-23T13:45:16.353Z,40.70
2022-08-23T13:46:23.279Z,40.80
2022-08-23T13:47:29.546Z,41.00
2022-08-23T13:48:35.814Z,41.10
2022-08-23T13:49:38.590Z,41.20
2022-08-23T13:50:43.052Z,41.30
2022-08-23T13:52:41.555Z,41.30
2022-08-23T13:53:32.464Z,41.30
2022-08-23T13:54:40.041Z,41.30
2022-08-23T13:55:47.389Z,41.30
2022-08-23T13:56:54.336Z,41.20
2022-08-23T13:57:58.967Z,41.20
2022-08-23T13:59:08.054Z,41.10
2022-08-23T14:00:17.708Z,41.10
2022-08-23T14:01:22.261Z,41.00
2022-08-23T14:02:29.533Z,41.00
2022-08-23T14:03:32.955Z,40.90
2022-08-23T14:04:37.043Z,40.90
2022-08-23T14:05:40.808Z,40.90
2022-08-23T14:06:43.377Z,40.90
2022-08-23T14:07:53.649Z,40.90
2022-08-23T14:08:56.377Z,40.90
2022-08-23T14:10:01.110Z,40.80
2022-08-23T14:11:04.423Z,40.90
2022-08-23T14:12:14.025Z,40.80
2022-08-23T14:13:18.268Z,40.80
2022-08-23T14:14:22.262Z,40.80
2022-08-23T14:16:49.578Z,40.60
2022-08-23T14:17:56.648Z,40.50
2022-08-23T14:20:34.058Z,40.30
2022-08-23T14:21:47.978Z,40.20
2022-08-23T14:22:50.781Z,40.00
2022-08-23T14:23:54.678Z,39.90
2022-08-23T14:24:58.274Z,39.80
2022-08-23T14:26:00.852Z,39.60
2022-08-23T14:27:05.242Z,39.50
2022-08-23T14:28:07.777Z,39.40
2022-08-23T14:29:15.319Z,39.30
2022-08-23T14:30:29.298Z,39.20
2022-08-23T14:31:32.434Z,39.20
2022-08-23T14:32:38.731Z,39.20
2022-08-23T14:33:42.854Z,39.20
2022-08-23T14:34:46.634Z,39.20
2022-08-23T14:35:49.413Z,39.20
2022-08-23T14:38:18.462Z,39.10
2022-08-23T14:39:22.960Z,39.10
2022-08-23T14:40:25.660Z,39.00
2022-08-23T14:41:30.422Z,38.80
2022-08-23T14:42:33.894Z,38.70
2022-08-23T14:43:37.711Z,38.50
2022-08-23T14:44:40.478Z,38.30
2022-08-23T14:45:47.429Z,38.20
2022-08-23T14:46:50.985Z,37.90
2022-08-23T14:47:54.860Z,37.70
2022-08-23T14:48:59.126Z,37.60
2022-08-23T14:50:03.338Z,37.40
2022-08-23T14:51:06.099Z,37.20
2022-08-23T14:52:10.343Z,37.10
2022-08-23T14:53:19.077Z,37.00
2022-08-23T14:54:26.736Z,36.80
2022-08-23T14:55:30.340Z,36.70
2022-08-23T14:56:35.533Z,36.60
2022-08-23T14:57:39.653Z,36.50
2022-08-23T14:58:42.981Z,36.50
2022-08-23T14:59:46.769Z,36.40
2022-08-23T15:00:49.975Z,36.30
2022-08-23T15:01:54.918Z,36.30
2022-08-23T15:02:58.830Z,36.20
2022-08-23T15:04:03.991Z,36.20
2022-08-23T15:05:09.796Z,36.10
2022-08-23T15:06:14.133Z,36.00
2022-08-23T15:07:19.121Z,36.00
2022-08-23T15:08:23.876Z,35.90
2022-08-23T15:09:27.647Z,35.90
2022-08-23T15:13:27.130Z,35.80
2022-08-23T15:14:35.893Z,35.80
2022-08-23T15:15:39.649Z,35.80
2022-08-23T15:16:44.372Z,35.80
2022-08-23T15:17:52.326Z,35.80
2022-08-23T15:18:57.290Z,35.70
2022-08-23T15:20:02.285Z,35.70
2022-08-23T15:21:07.733Z,35.70